Time;durP1;ratioP1;P1;durP2;ratioP2;P2;SDS_P1;SDS_P2;PMS_P1;PMS_P2;Temp;Humidity;BMP_temperature;BMP_pressure;BME280_temperature;BME280_humidity;BME280_pressure;Samples;Min_cycle;Max_cycle;Signal;HPM_P1;HPM_P2
2023/05/14 00:01:00;;;;;;;1.92;1.00;;;19.00;58.80;;;;;;4991383;28;20691;-67
2023/05/14 00:03:27;;;;;;;1.30;1.17;;;19.00;58.80;;;;;;5004245;28;20231;-67
2023/05/14 00:05:54;;;;;;;1.50;1.40;;;18.90;58.80;;;;;;5001653;28;20195;-66
2023/05/14 00:08:21;;;;;;;1.13;1.13;;;18.90;59.00;;;;;;5009686;28;20195;-66
2023/05/14 00:10:48;;;;;;;1.45;1.10;;;18.90;59.10;;;;;;5011064;28;20269;-66
2023/05/14 00:13:15;;;;;;;1.20;1.10;;;18.80;59.10;;;;;;5011474;28;20306;-66
2023/05/14 00:15:43;;;;;;;1.40;1.30;;;18.80;59.20;;;;;;5011606;28;20202;-67
2023/05/14 00:18:11;;;;;;;1.60;1.20;;;18.80;59.30;;;;;;5010689;28;20268;-66
2023/05/14 00:20:38;;;;;;;1.25;1.15;;;18.80;59.30;;;;;;5011094;28;20231;-66
2023/05/14 00:23:08;;;;;;;1.17;1.17;;;18.80;59.20;;;;;;5009596;28;20659;-66
2023/05/14 00:25:35;;;;;;;1.50;1.25;;;18.80;59.20;;;;;;5011608;28;20291;-66
2023/05/14 00:28:03;;;;;;;3.25;1.77;;;18.80;59.20;;;;;;5008791;28;20195;-66
2023/05/14 00:30:30;;;;;;;2.42;1.60;;;18.70;59.20;;;;;;5007702;28;20253;-66
2023/05/14 00:32:57;;;;;;;1.80;1.70;;;18.70;59.50;;;;;;5007314;28;20205;-66
2023/05/14 00:35:25;;;;;;;2.08;1.42;;;18.60;59.30;;;;;;4989085;28;20232;-66
2023/05/14 00:37:52;;;;;;;1.50;1.40;;;18.60;59.30;;;;;;5007147;28;20265;-66
2023/05/14 00:40:20;;;;;;;4.53;1.40;;;18.70;59.40;;;;;;5003730;28;20203;-66
2023/05/14 00:42:47;;;;;;;1.40;1.30;;;18.60;59.30;;;;;;5007592;28;20682;-67
2023/05/14 00:45:14;;;;;;;1.45;1.30;;;18.60;59.90;;;;;;5007564;28;20654;-67
2023/05/14 00:47:41;;;;;;;4.07;1.90;;;18.60;59.50;;;;;;5007260;28;20195;-66
2023/05/14 00:50:09;;;;;;;3.47;1.90;;;18.60;59.30;;;;;;5005496;28;20284;-67
2023/05/14 00:52:38;;;;;;;2.10;1.90;;;18.60;59.40;;;;;;4991773;28;20242;-66
2023/05/14 00:55:07;;;;;;;3.05;1.92;;;18.50;59.30;;;;;;4990657;28;20622;-66
2023/05/14 00:57:35;;;;;;;1.83;1.70;;;18.60;59.50;;;;;;4982328;28;20678;-67
2023/05/14 01:00:03;;;;;;;2.03;1.80;;;18.50;59.30;;;;;;5009040;28;20223;-66
2023/05/14 01:02:30;;;;;;;3.53;1.60;;;18.50;59.30;;;;;;4991249;28;20523;-67
2023/05/14 01:04:58;;;;;;;1.80;1.70;;;18.50;59.40;;;;;;4986615;28;20219;-67
2023/05/14 01:07:33;;;;;;;5.47;1.80;;;18.50;59.40;;;;;;5010370;28;20195;-67
2023/05/14 01:10:12;;;;;;;1.58;1.48;;;18.50;59.40;;;;;;5008618;28;20206;-66
2023/05/14 01:12:46;;;;;;;1.30;1.30;;;18.50;59.40;;;;;;5010734;28;20330;-67
2023/05/14 01:15:18;;;;;;;1.40;1.30;;;18.50;59.30;;;;;;4993340;28;20226;-67
2023/05/14 01:17:48;;;;;;;1.33;1.30;;;18.50;59.30;;;;;;5006201;28;20199;-67
2023/05/14 01:20:16;;;;;;;1.60;1.50;;;18.50;59.30;;;;;;5008655;28;20263;-67
2023/05/14 01:22:44;;;;;;;1.70;1.30;;;18.50;59.40;;;;;;5008742;28;20199;-67
2023/05/14 01:25:12;;;;;;;1.15;1.15;;;18.50;59.40;;;;;;5007736;28;20631;-67
2023/05/14 01:27:47;;;;;;;1.17;1.15;;;18.50;59.50;;;;;;5008969;28;20206;-68
2023/05/14 01:30:21;;;;;;;1.35;1.23;;;18.50;59.50;;;;;;5008326;28;20220;-67
2023/05/14 01:32:53;;;;;;;1.67;1.40;;;18.50;59.50;;;;;;5001972;28;20206;-67
2023/05/14 01:35:22;;;;;;;1.40;1.30;;;18.40;59.40;;;;;;4994730;28;20225;-67
2023/05/14 01:37:52;;;;;;;1.50;1.40;;;18.40;59.40;;;;;;5008391;28;20217;-67
2023/05/14 01:40:20;;;;;;;2.85;1.50;;;18.40;59.50;;;;;;5001459;28;20224;-67
2023/05/14 01:42:50;;;;;;;2.05;1.40;;;18.40;59.50;;;;;;4995705;28;20195;-66
2023/05/14 01:45:17;;;;;;;3.30;1.77;;;18.50;59.60;;;;;;5000510;28;20285;-66
2023/05/14 01:47:44;;;;;;;1.52;1.42;;;18.30;59.50;;;;;;4993352;28;20205;-66
2023/05/14 01:50:12;;;;;;;1.50;1.40;;;18.40;59.60;;;;;;5009257;28;20199;-67
2023/05/14 01:52:39;;;;;;;1.60;1.50;;;18.40;59.60;;;;;;4996782;28;20211;-66
2023/05/14 01:55:09;;;;;;;2.92;1.40;;;18.40;59.60;;;;;;4998846;28;20211;-67
2023/05/14 01:57:36;;;;;;;3.13;1.60;;;18.40;59.70;;;;;;4994419;28;20229;-66
2023/05/14 02:00:05;;;;;;;1.35;1.30;;;18.40;59.80;;;;;;4995924;28;20234;-66
2023/05/14 02:02:40;;;;;;;3.67;1.48;;;18.40;59.80;;;;;;5012488;28;20203;-66
2023/05/14 02:05:10;;;;;;;1.23;1.23;;;18.30;59.80;;;;;;4989634;28;20203;-66
2023/05/14 02:07:37;;;;;;;1.50;1.40;;;18.40;59.90;;;;;;5012662;28;20205;-67
2023/05/14 02:10:05;;;;;;;3.53;1.40;;;18.30;60.00;;;;;;4994639;28;20199;-66
2023/05/14 02:12:34;;;;;;;1.30;1.20;;;18.30;60.20;;;;;;5013044;28;20740;-66
2023/05/14 02:15:01;;;;;;;1.20;1.10;;;18.30;59.90;;;;;;5012808;28;20214;-66
2023/05/14 02:17:28;;;;;;;1.50;1.40;;;18.30;59.90;;;;;;5012082;28;20252;-66
2023/05/14 02:19:55;;;;;;;4.00;1.27;;;18.30;59.90;;;;;;4993789;28;20297;-66
2023/05/14 02:22:22;;;;;;;3.30;1.40;;;18.30;59.90;;;;;;5012218;28;20350;-67
2023/05/14 02:24:52;;;;;;;1.93;1.43;;;18.30;60.00;;;;;;5012383;28;20197;-66
2023/05/14 02:27:20;;;;;;;2.70;1.80;;;18.30;60.10;;;;;;5013534;28;20197;-66
2023/05/14 02:29:49;;;;;;;1.45;1.35;;;18.20;60.00;;;;;;5011863;28;20202;-66
2023/05/14 02:32:16;;;;;;;2.67;1.42;;;18.30;60.20;;;;;;4988352;28;20228;-67
2023/05/14 02:34:43;;;;;;;4.10;1.60;;;18.20;60.20;;;;;;5005102;28;20614;-67
2023/05/14 02:37:10;;;;;;;1.73;1.63;;;18.20;60.30;;;;;;5010216;28;20193;-67
2023/05/14 02:39:37;;;;;;;3.57;1.50;;;18.10;60.40;;;;;;5011332;28;20203;-68
2023/05/14 02:42:05;;;;;;;2.08;1.25;;;18.10;60.50;;;;;;5012720;28;20238;-67
2023/05/14 02:44:32;;;;;;;3.83;1.50;;;18.10;60.60;;;;;;5012917;28;20204;-69
2023/05/14 02:47:01;;;;;;;2.53;1.43;;;18.10;60.60;;;;;;4995361;28;20221;-66
2023/05/14 02:49:28;;;;;;;1.30;1.30;;;18.00;60.60;;;;;;4994373;28;20263;-66
2023/05/14 02:51:55;;;;;;;1.30;1.20;;;18.00;60.60;;;;;;5013041;28;20558;-67
2023/05/14 02:54:22;;;;;;;1.67;1.30;;;18.00;60.80;;;;;;4990791;28;20216;-67
2023/05/14 02:56:49;;;;;;;1.83;1.30;;;18.00;60.90;;;;;;5004481;28;20205;-66
2023/05/14 02:59:16;;;;;;;1.95;1.40;;;18.00;61.00;;;;;;4994273;28;20236;-67
2023/05/14 03:01:43;;;;;;;1.40;1.30;;;18.00;60.90;;;;;;4992345;28;20704;-67
2023/05/14 03:04:12;;;;;;;1.50;1.30;;;18.00;61.00;;;;;;4991693;28;20316;-67
2023/05/14 03:06:39;;;;;;;2.08;1.42;;;18.00;60.90;;;;;;5012400;28;20197;-67
2023/05/14 03:09:06;;;;;;;1.60;1.50;;;18.00;61.00;;;;;;5011602;28;20204;-67
2023/05/14 03:11:34;;;;;;;1.43;1.30;;;18.00;61.10;;;;;;4994864;28;20211;-67
2023/05/14 03:14:01;;;;;;;1.23;1.17;;;18.00;61.20;;;;;;4998199;28;20213;-67
2023/05/14 03:16:28;;;;;;;1.40;1.30;;;18.00;61.30;;;;;;5012954;28;20677;-67
2023/05/14 03:18:55;;;;;;;1.08;1.08;;;18.00;61.40;;;;;;5009447;28;20280;-67
2023/05/14 03:21:23;;;;;;;1.60;1.50;;;17.90;61.40;;;;;;5010756;28;20280;-67
2023/05/14 03:23:52;;;;;;;1.60;1.50;;;17.90;61.50;;;;;;4991130;28;20198;-66
2023/05/14 03:26:20;;;;;;;1.60;1.50;;;17.90;61.70;;;;;;5011351;28;20214;-65
2023/05/14 03:28:47;;;;;;;1.40;1.30;;;17.90;61.80;;;;;;4983762;28;20678;-66
2023/05/14 03:31:14;;;;;;;1.40;1.30;;;17.90;61.80;;;;;;4992007;28;20306;-67
2023/05/14 03:33:41;;;;;;;1.60;1.50;;;17.90;61.90;;;;;;4992811;28;20669;-67
2023/05/14 03:36:09;;;;;;;1.25;1.20;;;17.80;62.00;;;;;;5010020;28;20210;-67
2023/05/14 03:38:37;;;;;;;2.08;1.38;;;17.80;62.20;;;;;;4986873;28;20563;-66
2023/05/14 03:41:04;;;;;;;1.70;1.30;;;17.80;62.50;;;;;;4994159;28;20207;-66
2023/05/14 03:43:31;;;;;;;2.30;1.20;;;17.80;62.50;;;;;;4980426;28;20512;-66
2023/05/14 03:45:58;;;;;;;1.50;1.40;;;17.80;62.60;;;;;;4995708;28;20732;-66
2023/05/14 03:48:26;;;;;;;1.48;1.38;;;17.80;62.70;;;;;;5004767;28;20207;-67
2023/05/14 03:50:53;;;;;;;1.30;1.20;;;17.80;62.70;;;;;;4993117;28;20230;-67
2023/05/14 03:53:20;;;;;;;1.38;1.30;;;17.80;62.80;;;;;;4992583;28;20252;-67
2023/05/14 03:55:49;;;;;;;1.75;1.40;;;17.80;62.90;;;;;;4993577;28;20695;-66
2023/05/14 03:58:17;;;;;;;1.50;1.40;;;17.80;63.10;;;;;;4994004;28;20288;-67
2023/05/14 04:00:44;;;;;;;1.77;1.50;;;17.80;63.20;;;;;;5010945;28;20661;-66
2023/05/14 04:03:11;;;;;;;2.22;1.30;;;17.80;63.20;;;;;;5003350;28;20300;-67
2023/05/14 04:05:38;;;;;;;1.70;1.37;;;17.80;63.30;;;;;;5000228;28;20190;-66
2023/05/14 04:08:06;;;;;;;1.17;1.17;;;17.80;63.40;;;;;;4977209;28;20678;-66
2023/05/14 04:10:33;;;;;;;1.35;1.35;;;17.80;63.60;;;;;;5010336;28;20637;-66
2023/05/14 04:13:02;;;;;;;1.60;1.48;;;17.90;63.70;;;;;;5011439;28;20291;-66
2023/05/14 04:15:34;;;;;;;1.60;1.20;;;17.80;63.80;;;;;;4993516;28;20555;-66
2023/05/14 04:18:01;;;;;;;1.15;1.15;;;17.80;63.80;;;;;;4989240;28;20270;-66
2023/05/14 04:20:28;;;;;;;1.13;1.05;;;17.90;64.00;;;;;;5010540;28;20238;-65
2023/05/14 04:22:55;;;;;;;1.40;1.30;;;17.90;64.10;;;;;;5010255;28;20196;-67
2023/05/14 04:25:22;;;;;;;1.50;1.40;;;17.90;64.10;;;;;;5011050;28;20218;-67
2023/05/14 04:27:50;;;;;;;1.25;1.23;;;18.00;64.20;;;;;;5011178;28;20554;-66
2023/05/14 04:30:18;;;;;;;1.30;1.25;;;18.00;64.30;;;;;;4992871;28;20271;-65
2023/05/14 04:32:45;;;;;;;1.60;1.50;;;18.00;64.40;;;;;;5011393;28;20196;-65
2023/05/14 04:35:12;;;;;;;1.33;1.23;;;18.00;64.60;;;;;;5010624;28;20230;-66
2023/05/14 04:37:40;;;;;;;1.00;1.00;;;18.00;64.80;;;;;;5004129;28;20232;-66
2023/05/14 04:40:10;;;;;;;1.30;1.20;;;18.00;64.80;;;;;;5009531;28;20210;-67
2023/05/14 04:42:37;;;;;;;5.18;1.20;;;18.10;64.90;;;;;;4994590;28;20644;-66
2023/05/14 04:45:05;;;;;;;1.20;1.20;;;18.10;64.90;;;;;;5011280;28;20203;-67
2023/05/14 04:47:34;;;;;;;1.70;1.33;;;18.10;65.00;;;;;;5010352;28;20303;-66
2023/05/14 04:50:01;;;;;;;1.77;1.27;;;18.10;65.00;;;;;;5010487;28;20198;-66
2023/05/14 04:52:28;;;;;;;1.73;1.40;;;18.20;65.10;;;;;;5010400;28;20258;-67
2023/05/14 04:54:56;;;;;;;1.60;1.53;;;18.20;65.10;;;;;;5007056;28;20217;-66
2023/05/14 04:57:22;;;;;;;1.58;1.48;;;18.20;65.20;;;;;;5000803;28;20204;-67
2023/05/14 04:59:49;;;;;;;1.50;1.38;;;18.20;65.20;;;;;;5010450;28;20232;-66
2023/05/14 05:02:17;;;;;;;1.60;1.50;;;18.30;65.30;;;;;;5010674;28;20208;-66
2023/05/14 05:04:46;;;;;;;1.80;1.70;;;18.30;65.30;;;;;;4988932;28;20591;-66
2023/05/14 05:07:13;;;;;;;1.80;1.48;;;18.30;65.40;;;;;;4991006;28;20252;-66
2023/05/14 05:09:40;;;;;;;1.40;1.30;;;18.30;65.40;;;;;;4989547;28;20296;-66
2023/05/14 05:12:08;;;;;;;1.73;1.50;;;18.40;65.60;;;;;;4990212;28;20219;-67
2023/05/14 05:14:35;;;;;;;1.33;1.23;;;18.40;65.70;;;;;;4990639;28;20218;-67
2023/05/14 05:17:02;;;;;;;1.27;1.17;;;18.40;65.70;;;;;;4980819;28;20611;-66
2023/05/14 05:19:29;;;;;;;1.33;1.30;;;18.40;65.80;;;;;;4990209;28;20280;-67
2023/05/14 05:21:57;;;;;;;1.80;1.63;;;18.40;65.90;;;;;;4983301;28;20246;-66
2023/05/14 05:24:24;;;;;;;1.70;1.60;;;18.40;66.70;;;;;;4986049;28;20658;-66
2023/05/14 05:26:52;;;;;;;1.35;1.25;;;18.40;66.00;;;;;;4990668;28;20188;-66
2023/05/14 05:29:19;;;;;;;1.50;1.50;;;18.50;66.10;;;;;;4990013;28;20191;-66
2023/05/14 05:31:47;;;;;;;1.27;1.25;;;18.50;66.10;;;;;;4990446;28;20199;-66
2023/05/14 05:34:14;;;;;;;2.15;1.42;;;18.50;66.10;;;;;;4988029;28;20207;-66
2023/05/14 05:36:41;;;;;;;1.30;1.20;;;18.50;66.10;;;;;;4988470;28;20206;-67
2023/05/14 05:39:10;;;;;;;1.27;1.27;;;18.60;66.20;;;;;;4985297;28;20231;-66
2023/05/14 05:41:37;;;;;;;1.20;1.20;;;18.60;66.20;;;;;;4985303;28;20202;-65
2023/05/14 05:44:04;;;;;;;1.88;1.77;;;18.60;66.40;;;;;;4988134;28;20199;-67
2023/05/14 05:46:31;;;;;;;3.38;1.60;;;18.70;66.50;;;;;;4989187;28;20263;-67
2023/05/14 05:48:58;;;;;;;2.15;1.90;;;18.80;66.50;;;;;;4983242;28;20249;-67
2023/05/14 05:51:25;;;;;;;4.35;2.33;;;18.80;66.50;;;;;;4984984;28;20219;-66
2023/05/14 05:53:52;;;;;;;1.63;1.52;;;18.90;66.50;;;;;;4982582;28;20235;-67
2023/05/14 05:56:21;;;;;;;2.55;1.92;;;19.00;66.40;;;;;;4983716;28;20213;-66
2023/05/14 05:58:48;;;;;;;1.63;1.52;;;19.00;66.40;;;;;;4979345;28;20215;-66
2023/05/14 06:01:15;;;;;;;2.22;1.50;;;19.00;66.80;;;;;;4988319;28;20264;-67
2023/05/14 06:03:42;;;;;;;1.87;1.63;;;19.00;66.50;;;;;;4998640;28;20779;-67
2023/05/14 06:06:09;;;;;;;1.88;1.77;;;19.10;66.70;;;;;;5005538;28;20190;-67
2023/05/14 06:08:36;;;;;;;1.80;1.70;;;19.00;66.60;;;;;;5007850;28;20214;-67
2023/05/14 06:11:04;;;;;;;4.35;2.80;;;19.20;66.80;;;;;;5008239;28;20264;-67
2023/05/14 06:13:32;;;;;;;2.53;2.30;;;19.20;66.70;;;;;;5010005;28;20260;-66
2023/05/14 06:15:59;;;;;;;3.33;2.10;;;19.30;66.80;;;;;;5008363;28;20704;-66
2023/05/14 06:18:27;;;;;;;2.30;2.10;;;19.40;66.80;;;;;;5008258;28;20203;-67
2023/05/14 06:20:55;;;;;;;2.85;2.22;;;19.40;66.60;;;;;;4991737;28;20306;-66
2023/05/14 06:23:22;;;;;;;4.72;3.45;;;19.40;66.40;;;;;;5006700;28;20219;-67
2023/05/14 06:25:50;;;;;;;4.40;3.20;;;19.50;66.30;;;;;;5008291;28;20215;-68
2023/05/14 06:28:17;;;;;;;3.58;2.70;;;19.50;66.00;;;;;;5009641;28;20682;-66
2023/05/14 06:30:45;;;;;;;4.90;3.42;;;19.60;65.70;;;;;;4997084;28;20254;-66
2023/05/14 06:33:13;;;;;;;5.45;2.50;;;19.60;65.60;;;;;;5000936;28;20199;-66
2023/05/14 06:35:40;;;;;;;2.50;2.30;;;19.70;65.40;;;;;;5005646;28;20212;-67
2023/05/14 06:38:08;;;;;;;3.35;2.67;;;19.80;65.20;;;;;;5006266;28;20199;-65
2023/05/14 06:40:35;;;;;;;3.05;2.75;;;19.80;65.10;;;;;;4995405;28;20203;-66
2023/05/14 06:43:02;;;;;;;9.95;2.97;;;19.90;64.90;;;;;;5010168;28;20215;-67
2023/05/14 06:45:30;;;;;;;6.63;2.40;;;19.90;64.50;;;;;;4997505;28;20541;-66
2023/05/14 06:47:58;;;;;;;2.88;2.30;;;19.90;64.30;;;;;;5010910;28;20195;-67
2023/05/14 06:50:25;;;;;;;5.30;2.88;;;20.00;64.20;;;;;;5011116;28;20302;-67
2023/05/14 06:52:52;;;;;;;3.13;2.60;;;20.00;64.20;;;;;;4998612;28;20379;-68
2023/05/14 06:55:20;;;;;;;2.22;1.92;;;20.10;64.20;;;;;;5011881;28;20214;-66
2023/05/14 06:57:47;;;;;;;1.80;1.70;;;20.20;64.10;;;;;;5013187;28;20206;-66
2023/05/14 07:00:15;;;;;;;2.95;2.22;;;20.30;64.80;;;;;;5009942;28;20192;-67
2023/05/14 07:02:42;;;;;;;3.00;2.80;;;20.30;63.90;;;;;;5012414;28;20211;-66
2023/05/14 07:05:11;;;;;;;2.30;2.10;;;20.40;63.80;;;;;;5010619;28;20544;-66
2023/05/14 07:07:38;;;;;;;3.28;2.45;;;20.50;63.70;;;;;;5012514;28;20282;-66
2023/05/14 07:10:06;;;;;;;2.13;1.92;;;20.60;63.70;;;;;;5006467;28;20273;-67
2023/05/14 07:12:34;;;;;;;2.30;2.20;;;20.60;63.60;;;;;;5011753;28;20206;-66
2023/05/14 07:15:01;;;;;;;2.95;2.75;;;20.70;63.60;;;;;;5012910;28;20203;-67
2023/05/14 07:17:28;;;;;;;4.50;3.10;;;20.80;63.60;;;;;;5012308;28;20265;-65
2023/05/14 07:19:55;;;;;;;2.75;2.17;;;20.80;63.60;;;;;;5012187;28;20203;-67
2023/05/14 07:22:24;;;;;;;1.90;1.80;;;20.90;63.70;;;;;;4986175;28;20625;-67
2023/05/14 07:24:51;;;;;;;4.78;2.50;;;20.90;63.40;;;;;;5006524;28;20229;-66
2023/05/14 07:27:18;;;;;;;3.30;2.70;;;21.00;63.30;;;;;;5012946;28;20305;-67
2023/05/14 07:29:45;;;;;;;2.40;2.20;;;21.10;62.70;;;;;;5012615;28;20273;-67
2023/05/14 07:32:12;;;;;;;2.45;1.98;;;21.20;62.70;;;;;;4992513;28;20692;-66
2023/05/14 07:34:39;;;;;;;2.33;2.22;;;21.20;62.50;;;;;;5012578;28;20274;-66
2023/05/14 07:37:06;;;;;;;4.57;3.13;;;21.30;62.10;;;;;;5007874;28;20563;-65
2023/05/14 07:39:35;;;;;;;3.78;2.80;;;21.40;61.60;;;;;;5010979;28;20314;-66
2023/05/14 07:42:02;;;;;;;3.08;2.58;;;21.40;61.50;;;;;;5011763;28;20512;-66
2023/05/14 07:44:29;;;;;;;2.13;2.00;;;21.50;61.50;;;;;;4991062;28;20225;-66
2023/05/14 07:46:56;;;;;;;3.03;2.35;;;21.60;61.60;;;;;;5011624;28;20337;-66
2023/05/14 07:49:23;;;;;;;4.03;2.42;;;21.60;61.50;;;;;;5011257;28;20298;-67
2023/05/14 07:51:50;;;;;;;2.90;2.60;;;21.70;61.50;;;;;;5011421;28;20195;-64
2023/05/14 07:54:17;;;;;;;8.55;2.92;;;21.80;61.30;;;;;;4988945;28;20226;-66
2023/05/14 07:56:46;;;;;;;2.10;1.90;;;21.80;61.10;;;;;;5011454;28;20218;-66
2023/05/14 07:59:13;;;;;;;2.78;2.58;;;21.90;61.20;;;;;;5008862;28;20555;-66
2023/05/14 08:01:40;;;;;;;3.63;2.42;;;22.00;61.20;;;;;;5011068;28;20539;-66
2023/05/14 08:04:07;;;;;;;2.35;2.25;;;22.10;61.00;;;;;;4998592;28;20227;-67
2023/05/14 08:06:34;;;;;;;1.75;1.65;;;22.10;60.80;;;;;;5010115;28;20229;-67
2023/05/14 08:09:04;;;;;;;2.10;2.00;;;22.20;60.90;;;;;;5007485;28;20342;-66
2023/05/14 08:11:31;;;;;;;2.42;2.20;;;22.30;60.90;;;;;;5005217;28;20262;-66
2023/05/14 08:13:59;;;;;;;2.45;2.35;;;22.40;60.90;;;;;;5011083;28;20298;-66
2023/05/14 08:16:26;;;;;;;1.80;1.70;;;22.50;60.90;;;;;;5008349;28;20636;-65
2023/05/14 08:18:53;;;;;;;1.75;1.65;;;22.60;61.00;;;;;;5008583;28;20199;-66
2023/05/14 08:21:21;;;;;;;1.40;1.40;;;22.70;61.80;;;;;;5005174;28;20226;-66
2023/05/14 08:23:48;;;;;;;1.10;1.10;;;22.80;61.10;;;;;;5008802;28;20191;-64
2023/05/14 08:26:15;;;;;;;1.35;1.25;;;22.80;61.20;;;;;;5010234;28;20195;-66
2023/05/14 08:28:42;;;;;;;1.35;1.35;;;22.80;61.20;;;;;;5010550;28;20199;-66
2023/05/14 08:31:13;;;;;;;0.93;0.93;;;23.00;61.30;;;;;;4994152;28;20203;-67
2023/05/14 08:33:40;;;;;;;1.92;1.83;;;23.10;61.30;;;;;;5009092;28;20214;-66
2023/05/14 08:36:08;;;;;;;5.00;3.00;;;23.10;61.20;;;;;;5010405;28;20716;-66
2023/05/14 08:38:35;;;;;;;3.38;3.08;;;23.20;61.30;;;;;;4992558;28;20230;-67
2023/05/14 08:41:06;;;;;;;3.15;2.90;;;23.20;61.40;;;;;;5011306;28;20199;-68
2023/05/14 08:43:44;;;;;;;2.95;2.75;;;23.30;61.20;;;;;;5006978;28;20679;-67
2023/05/14 08:46:14;;;;;;;2.45;2.25;;;23.30;61.00;;;;;;5009170;28;20634;-66
2023/05/14 08:48:46;;;;;;;2.00;1.90;;;23.40;61.10;;;;;;5007987;28;20663;-67
2023/05/14 08:51:14;;;;;;;1.88;1.77;;;23.40;61.00;;;;;;5007792;28;20191;-65
2023/05/14 08:53:42;;;;;;;1.67;1.58;;;23.50;61.30;;;;;;4997792;28;20317;-66
2023/05/14 08:56:11;;;;;;;2.70;2.50;;;23.60;61.50;;;;;;4980234;28;20219;-66
2023/05/14 08:58:38;;;;;;;3.10;2.70;;;23.70;61.10;;;;;;5008356;28;20683;-67
2023/05/14 09:01:06;;;;;;;2.28;2.08;;;23.80;60.90;;;;;;5009474;28;20187;-66
2023/05/14 09:03:36;;;;;;;1.88;1.77;;;23.80;60.70;;;;;;4994710;28;20247;-67
2023/05/14 09:06:04;;;;;;;1.83;1.73;;;23.90;60.70;;;;;;5002551;28;20646;-68
2023/05/14 09:08:32;;;;;;;1.38;1.38;;;24.00;60.70;;;;;;4992706;28;20200;-67
2023/05/14 09:10:59;;;;;;;1.20;1.20;;;24.00;60.60;;;;;;5005943;28;20214;-67
2023/05/14 09:13:26;;;;;;;1.20;1.20;;;24.10;60.60;;;;;;4996732;28;20202;-74
2023/05/14 09:15:54;;;;;;;1.05;1.05;;;24.20;60.70;;;;;;4996622;28;20289;-67
2023/05/14 09:18:45;;;;;;;1.35;1.35;;;24.30;60.70;;;;;;4996246;28;20270;-67
2023/05/14 09:21:19;;;;;;;2.70;2.50;;;24.60;60.60;;;;;;4998102;28;20207;-67
2023/05/14 09:23:48;;;;;;;3.28;2.78;;;24.40;59.30;;;;;;5002377;28;20651;-66
2023/05/14 09:26:18;;;;;;;2.88;2.58;;;24.40;58.80;;;;;;4999015;28;20188;-66
2023/05/14 09:28:45;;;;;;;2.53;2.40;;;24.40;58.40;;;;;;4990691;28;20203;-66
2023/05/14 09:31:12;;;;;;;2.00;1.90;;;24.50;58.50;;;;;;5004872;28;20384;-67
2023/05/14 09:33:41;;;;;;;2.35;2.15;;;24.60;58.50;;;;;;4989488;28;20223;-67
2023/05/14 09:36:08;;;;;;;4.53;2.88;;;24.70;58.40;;;;;;5005095;28;20214;-67
2023/05/14 09:38:35;;;;;;;3.22;2.60;;;24.90;57.90;;;;;;5005952;28;20868;-67
2023/05/14 09:41:09;;;;;;;2.58;2.38;;;24.70;57.10;;;;;;5007900;28;20190;-67
2023/05/14 09:43:36;;;;;;;2.10;2.00;;;24.80;57.40;;;;;;5000330;28;20206;-65
2023/05/14 09:46:04;;;;;;;2.20;1.90;;;24.90;57.60;;;;;;4998942;28;20195;-67
2023/05/14 09:48:31;;;;;;;2.20;2.10;;;25.00;57.90;;;;;;5006348;28;20212;-67
2023/05/14 09:50:59;;;;;;;2.28;1.70;;;25.00;57.90;;;;;;5006490;28;20254;-66
2023/05/14 09:53:26;;;;;;;2.70;2.50;;;25.10;57.90;;;;;;5007167;28;20199;-67
2023/05/14 09:55:53;;;;;;;2.58;2.38;;;25.20;57.80;;;;;;5007544;28;20199;-66
2023/05/14 09:58:21;;;;;;;2.92;2.72;;;25.30;57.60;;;;;;4997628;28;20199;-67
2023/05/14 10:00:48;;;;;;;3.38;2.45;;;25.30;57.60;;;;;;5001432;28;20199;-67
2023/05/14 10:03:16;;;;;;;2.30;2.20;;;25.30;57.70;;;;;;4999944;28;20497;-67
2023/05/14 10:05:43;;;;;;;2.00;1.90;;;25.50;58.00;;;;;;5007422;28;20550;-68
2023/05/14 10:08:20;;;;;;;1.95;1.85;;;25.40;57.90;;;;;;5004731;28;20692;-66
2023/05/14 10:10:47;;;;;;;1.85;1.75;;;25.50;58.00;;;;;;4988914;28;20195;-67
2023/05/14 10:13:20;;;;;;;1.30;1.30;;;25.60;58.00;;;;;;4997781;28;20241;-67
2023/05/14 10:15:52;;;;;;;1.80;1.70;;;25.70;58.10;;;;;;5004207;28;20223;-67
2023/05/14 10:18:22;;;;;;;1.77;1.67;;;25.70;57.90;;;;;;5002579;28;20223;-65
2023/05/14 10:21:05;;;;;;;2.50;2.30;;;25.80;57.80;;;;;;5012913;28;20195;-67
2023/05/14 10:23:36;;;;;;;2.00;1.90;;;25.80;57.70;;;;;;5006275;28;20191;-67
2023/05/14 10:26:04;;;;;;;1.90;1.80;;;25.80;57.70;;;;;;5008331;28;20203;-67
2023/05/14 10:28:32;;;;;;;2.25;1.40;;;25.80;57.70;;;;;;5011058;28;20229;-67
2023/05/14 10:31:00;;;;;;;2.30;2.10;;;25.80;57.70;;;;;;5009907;28;20222;-66
2023/05/14 10:33:27;;;;;;;1.73;1.63;;;25.80;57.60;;;;;;5009506;28;20222;-66
2023/05/14 10:36:01;;;;;;;1.70;1.60;;;25.90;57.60;;;;;;4993090;28;20204;-66
2023/05/14 10:38:29;;;;;;;1.67;1.58;;;25.90;58.00;;;;;;5008139;28;20664;-67
2023/05/14 10:41:00;;;;;;;1.88;1.63;;;25.90;57.20;;;;;;5011458;28;20199;-67
2023/05/14 10:43:29;;;;;;;1.70;1.60;;;26.00;57.00;;;;;;5006863;28;20274;-67
2023/05/14 10:45:58;;;;;;;1.55;1.55;;;26.10;56.90;;;;;;5005600;28;20211;-66
2023/05/14 10:48:26;;;;;;;1.30;1.30;;;26.10;56.70;;;;;;5010933;28;20226;-67
2023/05/14 10:50:53;;;;;;;1.23;1.23;;;26.10;56.50;;;;;;4992217;28;20239;-67
2023/05/14 10:53:21;;;;;;;1.73;1.58;;;26.10;56.30;;;;;;4990185;28;20226;-67
2023/05/14 10:55:48;;;;;;;1.40;1.40;;;26.10;56.10;;;;;;5010926;28;20265;-66
2023/05/14 10:58:17;;;;;;;4.10;1.88;;;26.10;55.80;;;;;;5011574;28;20207;-67
2023/05/14 11:00:48;;;;;;;3.10;2.80;;;26.00;55.40;;;;;;5007264;28;20199;-67
2023/05/14 11:03:16;;;;;;;3.92;3.53;;;26.00;54.60;;;;;;5000705;28;20239;-67
2023/05/14 11:05:44;;;;;;;2.55;2.45;;;25.90;54.00;;;;;;5010998;28;20282;-67
2023/05/14 11:08:12;;;;;;;2.65;2.45;;;25.70;53.80;;;;;;5004997;28;20195;-67
2023/05/14 11:10:40;;;;;;;2.05;1.95;;;25.50;54.00;;;;;;4988073;28;20203;-67
2023/05/14 11:13:07;;;;;;;1.65;1.60;;;25.40;54.10;;;;;;5008586;28;20199;-66
2023/05/14 11:15:39;;;;;;;1.60;1.50;;;25.40;54.20;;;;;;5001992;28;20663;-67
2023/05/14 11:18:06;;;;;;;1.83;1.73;;;25.30;54.20;;;;;;5005554;28;20250;-67
2023/05/14 11:20:35;;;;;;;1.35;1.35;;;25.40;54.10;;;;;;4988310;28;20228;-66
2023/05/14 11:23:02;;;;;;;1.60;1.50;;;25.40;53.90;;;;;;5008990;28;20196;-67
2023/05/14 11:25:29;;;;;;;1.30;1.30;;;25.40;53.70;;;;;;5011910;28;20291;-67
2023/05/14 11:27:59;;;;;;;1.33;1.33;;;25.50;53.50;;;;;;5006235;28;20202;-67
2023/05/14 11:30:28;;;;;;;1.73;1.63;;;25.60;53.30;;;;;;5003683;28;20710;-67
2023/05/14 11:32:56;;;;;;;2.10;1.85;;;25.60;53.00;;;;;;5007857;28;20202;-67
2023/05/14 11:35:24;;;;;;;1.60;1.50;;;25.70;52.70;;;;;;5007239;28;20626;-66
2023/05/14 11:37:52;;;;;;;1.40;1.30;;;25.70;52.60;;;;;;4992793;28;20581;-67
2023/05/14 11:40:19;;;;;;;1.63;1.52;;;25.70;52.50;;;;;;5006848;28;20691;-67
2023/05/14 11:42:46;;;;;;;1.70;1.65;;;25.70;52.40;;;;;;5002837;28;20547;-67
2023/05/14 11:45:14;;;;;;;1.70;1.60;;;25.80;52.40;;;;;;5011105;28;20199;-67
2023/05/14 11:47:42;;;;;;;1.33;1.33;;;25.80;52.40;;;;;;4992276;28;20666;-66
2023/05/14 11:50:11;;;;;;;1.65;1.55;;;25.80;52.30;;;;;;5005581;28;20285;-68
2023/05/14 11:52:39;;;;;;;1.88;1.65;;;25.80;52.20;;;;;;5010099;28;20508;-66
2023/05/14 11:55:10;;;;;;;1.75;1.65;;;25.70;52.10;;;;;;5003664;28;20199;-66
2023/05/14 11:57:37;;;;;;;1.60;1.50;;;25.50;52.10;;;;;;4991527;28;20223;-66
2023/05/14 12:00:09;;;;;;;1.73;1.63;;;25.40;52.10;;;;;;5010801;28;20234;-66
2023/05/14 12:02:37;;;;;;;1.50;1.50;;;25.30;52.20;;;;;;4984910;28;20206;-66
2023/05/14 12:05:07;;;;;;;1.58;1.52;;;25.10;52.30;;;;;;5004493;28;20219;-67
2023/05/14 12:07:36;;;;;;;1.63;1.50;;;25.10;52.30;;;;;;5010205;28;20282;-66
2023/05/14 12:10:04;;;;;;;3.72;3.08;;;25.20;52.10;;;;;;5006660;28;20283;-67
2023/05/14 12:12:35;;;;;;;2.35;2.13;;;25.20;51.70;;;;;;5010027;28;20203;-67
2023/05/14 12:15:10;;;;;;;2.38;2.17;;;25.10;51.60;;;;;;5003031;28;20223;-66
2023/05/14 12:17:38;;;;;;;2.13;2.03;;;25.00;51.60;;;;;;4991386;28;20218;-67
2023/05/14 12:20:09;;;;;;;2.40;2.20;;;24.80;51.50;;;;;;5010151;28;20255;-66
2023/05/14 12:22:38;;;;;;;1.73;1.65;;;24.80;51.60;;;;;;5005256;28;20605;-67
2023/05/14 12:25:12;;;;;;;1.95;1.48;;;24.80;51.60;;;;;;5007187;28;20602;-67
2023/05/14 12:27:40;;;;;;;1.95;1.85;;;24.90;51.50;;;;;;5008805;28;20742;-66
2023/05/14 12:30:08;;;;;;;1.60;1.50;;;25.00;51.40;;;;;;5002895;28;20574;-67
2023/05/14 12:32:40;;;;;;;1.65;1.55;;;25.10;51.40;;;;;;5004754;28;20261;-69
2023/05/14 12:35:08;;;;;;;1.45;1.42;;;25.30;51.30;;;;;;5005344;28;20249;-70
2023/05/14 12:37:36;;;;;;;1.50;1.40;;;25.40;51.30;;;;;;5004772;28;20281;-70
2023/05/14 12:40:09;;;;;;;1.58;1.48;;;25.40;51.20;;;;;;5008484;28;20202;-70
2023/05/14 12:42:36;;;;;;;2.42;1.50;;;25.40;51.80;;;;;;5007589;28;20246;-69
2023/05/14 12:45:06;;;;;;;1.60;1.50;;;25.30;51.20;;;;;;4987687;28;20218;-70
2023/05/14 12:47:33;;;;;;;1.70;1.60;;;25.20;51.50;;;;;;5009236;28;20567;-69
2023/05/14 12:50:00;;;;;;;1.70;1.60;;;25.10;51.90;;;;;;4992043;28;20814;-69
2023/05/14 12:52:28;;;;;;;1.70;1.60;;;25.00;52.10;;;;;;5006170;28;20195;-70